WetterOnline ( http://www.wetteronline.de )

Wetter aktuell Südschwarzwald (in 1400m)

Aktuelles Wetter: Feldberg/Schwarzwald (1493m)

6-stündlich | Neueste Meldungen
Ortszeit Temperatur Wetter
Mo, 22.10. 8:00 6.4° C wolkenlos
Mo, 22.10. 2:00 2.4° C wolkenlos
So, 21.10. 20:00 4.1° C wolkenlos
So, 21.10. 14:00 8.7° C fast wolkenlos
So, 21.10. 8:00 6.6° C wolkenlos
So, 21.10. 2:00 6.8° C fast wolkenlos
Sa, 20.10. 20:00 7.2° C wolkenlos
Sa, 20.10. 14:00 10.1° C fast wolkenlos
Ortszeit Temperatur Wetter
Mo, 22.10. 11:30 5.7° C fast wolkenlos
Mo, 22.10. 11:20 5.7° C fast wolkenlos
Mo, 22.10. 11:10 5.8° C fast wolkenlos
Mo, 22.10. 11:00 5.9° C wolkenlos
Mo, 22.10. 10:50 5.9° C wolkenlos
Mo, 22.10. 10:40 6.0° C wolkenlos
Mo, 22.10. 10:30 6.5° C fast wolkenlos
Mo, 22.10. 10:00 6.2° C leicht bewölkt
Mo, 22.10. 9:30 7.0° C fast wolkenlos
Mo, 22.10. 9:00 7.0° C wolkenlos
Mo, 22.10. 8:30 7.1° C wolkenlos
Mo, 22.10. 8:00 6.4° C wolkenlos
Ortszeit Relative Feuchte Sichtweite
Mo, 22.10. 8:00 31% >70 km
Mo, 22.10. 2:00 57% 50 km
So, 21.10. 20:00 68% 35 km
So, 21.10. 14:00 27% 60 km
So, 21.10. 8:00 45% >70 km
So, 21.10. 2:00 53% 22 km
Sa, 20.10. 20:00 78% 14 km
Sa, 20.10. 14:00 65% 21 km
Ortszeit Relative Feuchte Sichtweite
Mo, 22.10. 11:30 47% 45 km
Mo, 22.10. 11:20 47% -
Mo, 22.10. 11:10 43% -
Mo, 22.10. 11:00 40% >70 km
Mo, 22.10. 10:50 40% -
Mo, 22.10. 10:40 38% -
Mo, 22.10. 10:30 33% 55 km
Mo, 22.10. 10:00 33% 50 km
Mo, 22.10. 9:30 28% >70 km
Mo, 22.10. 9:00 28% >70 km
Mo, 22.10. 8:30 29% 65 km
Mo, 22.10. 8:00 31% >70 km
Ortszeit Niederschlagsmenge Niederschlagsart
Mo, 22.10. 8:00 0.0 l/m2 in 12 Std. -
Mo, 22.10. 2:00 0.0 l/m2 in 6 Std. -
So, 21.10. 20:00 0.0 l/m2 in 12 Std. -
So, 21.10. 14:00 0.0 l/m2 in 6 Std. -
So, 21.10. 8:00 0.0 l/m2 in 12 Std. -
So, 21.10. 2:00 0.0 l/m2 in 6 Std. -
Sa, 20.10. 20:00 0.0 l/m2 in 12 Std. -
Sa, 20.10. 14:00 0.0 l/m2 in 6 Std. -
Ortszeit Niederschlagsmenge Niederschlagsart
Mo, 22.10. 11:30 0.0 l/m2 in 1 Std. -
Mo, 22.10. 11:20 keine Meldung -
Mo, 22.10. 11:10 keine Meldung -
Mo, 22.10. 11:00 0.0 l/m2 in 1 Std. -
Mo, 22.10. 10:50 keine Meldung -
Mo, 22.10. 10:40 keine Meldung -
Mo, 22.10. 10:30 0.0 l/m2 in 1 Std. -
Mo, 22.10. 10:00 0.0 l/m2 in 1 Std. -
Mo, 22.10. 9:30 0.0 l/m2 in 1 Std. -
Mo, 22.10. 9:00 0.0 l/m2 in 1 Std. -
Mo, 22.10. 8:30 0.0 l/m2 in 1 Std. -
Mo, 22.10. 8:00 0.0 l/m2 in 1 Std. -
Ortszeit Stärke Spitze Richtung
km/h Bft. km/h Grad Sektor
Mo, 22.10. 8:00 43 6 48 70° O
Mo, 22.10. 2:00 40 6 47 90° O
So, 21.10. 20:00 39 6 44 90° O
So, 21.10. 14:00 22 4 43 90° O
So, 21.10. 8:00 29 5 29 60° NO
So, 21.10. 2:00 18 3 43 50° NO
Sa, 20.10. 20:00 22 4 30 80° O
Sa, 20.10. 14:00 6 1 43 40° NO
Ortszeit Stärke Spitze Richtung
km/h Bft. km/h Grad Sektor
Mo, 22.10. 11:30 31 5 52 70° O
Mo, 22.10. 11:20 31 5 - 70° O
Mo, 22.10. 11:10 39 6 - 60° NO
Mo, 22.10. 11:00 50 6 56 70° O
Mo, 22.10. 10:50 50 6 - 70° O
Mo, 22.10. 10:40 50 6 - 60° NO
Mo, 22.10. 10:30 48 6 52 60° NO
Mo, 22.10. 10:00 47 6 50 60° NO
Mo, 22.10. 9:30 48 6 52 60° NO
Mo, 22.10. 9:00 47 6 50 60° NO
Mo, 22.10. 8:30 50 7 50 70° O
Mo, 22.10. 8:00 43 6 48 70° O
Ortszeit Untergrenze Bedeckung Gattung
total tief tief mittel hoch
Mo, 22.10. 8:00 - 0/8 0/8 - - -
Mo, 22.10. 2:00 - 0/8 0/8 - - -
So, 21.10. 20:00 - 0/8 0/8 - - -
So, 21.10. 14:00 10500 m 1/8 0/8 - - -
So, 21.10. 8:00 - 0/8 0/8 - - -
So, 21.10. 2:00 10500 m 1/8 0/8 - - -
Sa, 20.10. 20:00 - 0/8 0/8 - - -
Sa, 20.10. 14:00 10500 m 1/8 0/8 - - -
Ortszeit Bedeckungsgrad in Achtel und Wolkenuntergrenze
Mo, 22.10. 11:30 1(7500m)
Mo, 22.10. 11:20 1(7500m) 2(10500m)
Mo, 22.10. 11:10 1(7500m)
Mo, 22.10. 11:00 2(7500m)
Mo, 22.10. 10:50 keine Wolken
Mo, 22.10. 10:40 keine Wolken
Mo, 22.10. 10:30 1(10500m)
Mo, 22.10. 10:00 1(9000m) 3(12000m)
Mo, 22.10. 9:30 1(10500m)
Mo, 22.10. 9:00 keine Wolken
Mo, 22.10. 8:30 keine Wolken
Mo, 22.10. 8:00 keine Wolken
Ortszeit Stationsdruck (hPa) Tendenz (hPa in 3 Std.)
Mo, 22.10. 8:00 855 + 0,5
Mo, 22.10. 2:00 856 - 0,5
So, 21.10. 20:00 856 - 0,8
So, 21.10. 14:00 857 - 0,7
So, 21.10. 8:00 858 - 0,4
So, 21.10. 2:00 859 - 0,6
Sa, 20.10. 20:00 860 - 0,1
Sa, 20.10. 14:00 860 + 0,6
Ortszeit Stationsdruck (hPa) Tendenz (hPa in 3 Std.)
Mo, 22.10. 11:30 857 + 1,9
Mo, 22.10. 11:20 857 keine Meldung
Mo, 22.10. 11:10 857 keine Meldung
Mo, 22.10. 11:00 857 + 1,3
Mo, 22.10. 10:50 857 keine Meldung
Mo, 22.10. 10:40 857 keine Meldung
Mo, 22.10. 10:30 857 + 1,2
Mo, 22.10. 10:00 856 + 1,1
Mo, 22.10. 9:30 856 + 0,9
Mo, 22.10. 9:00 856 + 0,8
Mo, 22.10. 8:30 855 + 0,4
Mo, 22.10. 8:00 855 + 0,5
Ortszeit Schneehöhe (cm)
Mo, 22.10. 8:00 0
Mo, 22.10. 2:00 0
So, 21.10. 20:00 0
So, 21.10. 14:00 0
So, 21.10. 8:00 0
So, 21.10. 2:00 0
Sa, 20.10. 20:00 0
Sa, 20.10. 14:00 0
Ortszeit Schneehöhe (cm)
Mo, 22.10. 11:30 0
Mo, 22.10. 11:20 0
Mo, 22.10. 11:10 0
Mo, 22.10. 11:00 0
Mo, 22.10. 10:50 0
Mo, 22.10. 10:40 0
Mo, 22.10. 10:30 0
Mo, 22.10. 10:00 0
Mo, 22.10. 9:30 0
Mo, 22.10. 9:00 0
Mo, 22.10. 8:30 0
Mo, 22.10. 8:00 0
Link zu dieser Seite / Seite empfehlen

Das Wetter in ...